createdAt,value
2022-12-31T00:03:45.033Z,4.32
2022-12-31T00:07:46.516Z,3.15
2022-12-31T00:11:47.920Z,7.07
2022-12-31T00:15:49.348Z,12.55
2022-12-31T00:19:52.130Z,2.97
2022-12-31T00:23:53.570Z,3.05
2022-12-31T00:27:54.984Z,7.20
2022-12-31T00:31:56.425Z,8.50
2022-12-31T00:36:06.023Z,3.33
2022-12-31T00:40:09.301Z,2.13
2022-12-31T00:44:11.795Z,2.65
2022-12-31T00:48:13.229Z,4.85
2022-12-31T00:52:16.004Z,4.25
2022-12-31T00:56:19.776Z,3.15
2022-12-31T01:00:21.224Z,5.78
2022-12-31T01:04:22.662Z,5.13
2022-12-31T01:08:25.439Z,3.42
2022-12-31T01:12:26.834Z,3.45
2022-12-31T01:16:31.605Z,4.65
2022-12-31T01:20:36.173Z,5.20
2022-12-31T01:24:39.058Z,2.63
2022-12-31T01:28:40.743Z,2.58
2022-12-31T01:32:42.175Z,4.35
2022-12-31T01:36:43.672Z,4.05
2022-12-31T01:40:46.439Z,5.22
2022-12-31T01:44:51.914Z,2.20
2022-12-31T01:48:56.420Z,7.93
2022-12-31T01:53:00.725Z,3.72
2022-12-31T01:57:04.016Z,2.95
2022-12-31T02:01:08.119Z,4.90
2022-12-31T02:05:17.014Z,4.88
2022-12-31T02:09:18.505Z,3.60
2022-12-31T02:13:21.346Z,3.83
2022-12-31T02:17:32.414Z,2.72
2022-12-31T02:21:50.680Z,2.95
2022-12-31T02:26:08.625Z,3.67
2022-12-31T02:30:15.229Z,5.47
2022-12-31T02:34:21.023Z,2.38
2022-12-31T02:42:25.922Z,4.80
2022-12-31T02:46:37.368Z,5.57
2022-12-31T02:50:44.841Z,3.22
2022-12-31T02:54:55.504Z,3.20
2022-12-31T02:59:03.300Z,5.57
2022-12-31T03:03:07.862Z,6.32
2022-12-31T03:07:13.092Z,2.78
2022-12-31T03:11:14.489Z,2.05
2022-12-31T03:15:18.831Z,3.35
2022-12-31T03:19:21.575Z,4.60
2022-12-31T03:23:26.137Z,1.50
2022-12-31T03:27:27.550Z,5.35
2022-12-31T03:31:28.970Z,3.55
2022-12-31T03:35:34.413Z,5.07
2022-12-31T03:39:35.817Z,5.22
2022-12-31T03:43:37.248Z,2.55
2022-12-31T03:47:38.983Z,1.95
2022-12-31T03:51:41.729Z,5.88
2022-12-31T03:55:43.272Z,4.28
2022-12-31T03:59:44.718Z,1.27
2022-12-31T04:03:46.149Z,2.45
2022-12-31T04:07:48.934Z,3.92
2022-12-31T04:11:50.369Z,4.20
2022-12-31T04:15:51.880Z,2.03
2022-12-31T04:19:53.304Z,2.60
2022-12-31T04:23:56.143Z,2.40
2022-12-31T04:27:57.600Z,3.22
2022-12-31T04:31:59.031Z,2.33
2022-12-31T04:36:00.796Z,5.40
2022-12-31T04:40:06.617Z,1.55
2022-12-31T04:44:08.379Z,3.33
2022-12-31T04:48:09.788Z,2.20
2022-12-31T04:52:11.179Z,1.55
2022-12-31T04:56:14.517Z,4.53
2022-12-31T05:00:16.257Z,2.60
2022-12-31T05:04:17.697Z,2.92
2022-12-31T05:08:19.603Z,1.67
2022-12-31T05:12:22.356Z,6.32
2022-12-31T05:16:23.866Z,2.13
2022-12-31T05:20:25.325Z,5.80
2022-12-31T05:24:26.729Z,5.50
2022-12-31T05:28:29.461Z,3.50
2022-12-31T05:32:30.949Z,2.80
2022-12-31T05:36:32.360Z,4.78
2022-12-31T05:40:33.797Z,1.92
2022-12-31T05:44:36.533Z,3.15
2022-12-31T05:48:37.930Z,2.75
2022-12-31T05:52:39.344Z,1.67
2022-12-31T05:56:40.807Z,1.58
2022-12-31T06:00:43.543Z,2.30
2022-12-31T06:04:44.976Z,1.45
2022-12-31T06:08:49.207Z,1.30
2022-12-31T06:12:50.643Z,3.83
2022-12-31T06:16:53.411Z,1.98
2022-12-31T06:20:57.612Z,2.10
2022-12-31T06:24:59.025Z,2.25
2022-12-31T06:29:00.434Z,2.20
2022-12-31T06:33:03.221Z,1.88
2022-12-31T06:37:04.659Z,4.95
2022-12-31T06:41:09.531Z,6.57
2022-12-31T06:45:11.313Z,2.65
2022-12-31T06:49:14.671Z,1.58
2022-12-31T06:53:16.099Z,3.00
2022-12-31T06:57:18.065Z,4.57
2022-12-31T07:01:35.244Z,4.32
2022-12-31T07:05:45.371Z,2.28
2022-12-31T07:09:55.610Z,3.40
2022-12-31T07:14:07.447Z,4.63
2022-12-31T07:18:20.856Z,1.23
2022-12-31T07:22:24.226Z,3.50
2022-12-31T07:26:43.561Z,2.20
2022-12-31T07:30:52.590Z,1.92
2022-12-31T07:35:03.421Z,1.83
2022-12-31T07:39:10.841Z,4.35
2022-12-31T07:43:18.046Z,1.25
2022-12-31T07:47:21.867Z,2.38
2022-12-31T07:51:23.776Z,2.05
2022-12-31T07:55:26.552Z,2.20
2022-12-31T07:59:41.181Z,2.85
2022-12-31T08:03:52.679Z,5.07
2022-12-31T08:12:02.396Z,5.00
2022-12-31T08:16:04.515Z,2.28
2022-12-31T08:20:07.189Z,3.58
2022-12-31T08:24:20.302Z,2.88
2022-12-31T08:28:45.175Z,2.65
2022-12-31T08:32:51.659Z,2.03
2022-12-31T08:36:59.843Z,3.47
2022-12-31T08:41:12.292Z,2.63
2022-12-31T08:45:24.856Z,2.25
2022-12-31T08:49:28.344Z,1.48
2022-12-31T08:53:30.677Z,3.03
2022-12-31T08:57:38.029Z,3.67
2022-12-31T09:01:56.956Z,2.70
2022-12-31T09:06:06.209Z,1.35
2022-12-31T09:10:17.856Z,2.35
2022-12-31T09:14:33.489Z,3.30
2022-12-31T09:18:41.064Z,1.75
2022-12-31T09:22:42.844Z,1.00
2022-12-31T09:26:52.486Z,1.77
2022-12-31T09:31:01.097Z,1.48
2022-12-31T09:35:12.519Z,1.70
2022-12-31T09:39:22.476Z,4.32
2022-12-31T09:44:00.885Z,3.38
2022-12-31T09:48:42.134Z,2.17
2022-12-31T09:53:02.454Z,3.38
2022-12-31T09:57:19.403Z,3.58
2022-12-31T10:01:31.220Z,2.50
2022-12-31T10:05:48.789Z,3.22
2022-12-31T10:10:00.728Z,0.82
2022-12-31T10:14:28.327Z,3.67
2022-12-31T10:18:44.298Z,2.78
2022-12-31T10:23:20.657Z,1.85
2022-12-31T10:27:48.726Z,1.48
2022-12-31T10:32:07.410Z,1.52
2022-12-31T10:36:17.802Z,2.85
2022-12-31T10:40:28.907Z,2.05
2022-12-31T10:45:04.227Z,3.05
2022-12-31T10:49:30.159Z,1.48
2022-12-31T10:53:52.000Z,0.93
2022-12-31T10:58:28.926Z,2.42
2022-12-31T11:02:52.841Z,2.47
2022-12-31T11:07:22.595Z,3.55
2022-12-31T11:11:38.182Z,3.13
2022-12-31T11:16:09.762Z,1.38
2022-12-31T11:20:30.973Z,1.92
2022-12-31T11:24:44.263Z,2.13
2022-12-31T11:29:08.212Z,3.38
2022-12-31T11:33:24.347Z,3.40
2022-12-31T11:37:36.629Z,3.58
2022-12-31T11:41:46.223Z,4.75
2022-12-31T11:46:08.593Z,3.42
2022-12-31T11:50:28.712Z,5.35
2022-12-31T11:54:45.706Z,6.20
2022-12-31T11:58:49.377Z,2.67
2022-12-31T12:02:53.738Z,2.70
2022-12-31T12:06:55.661Z,1.60
2022-12-31T12:11:04.990Z,2.22
2022-12-31T12:15:10.146Z,3.47
2022-12-31T12:19:17.963Z,3.03
2022-12-31T12:23:24.500Z,3.42
2022-12-31T12:27:30.601Z,2.88
2022-12-31T12:31:32.127Z,6.55
2022-12-31T12:35:35.506Z,2.50
2022-12-31T12:39:37.201Z,3.08
2022-12-31T12:43:40.000Z,3.25
2022-12-31T12:47:42.953Z,2.42
2022-12-31T12:52:02.801Z,2.95
2022-12-31T12:56:12.880Z,1.52
2022-12-31T13:00:21.689Z,1.25
2022-12-31T13:04:47.491Z,1.85
2022-12-31T13:09:04.128Z,2.80
2022-12-31T13:13:24.900Z,2.38
2022-12-31T13:17:39.843Z,2.58
2022-12-31T13:21:48.865Z,1.13
2022-12-31T13:25:59.917Z,1.70
2022-12-31T13:30:04.105Z,1.23
2022-12-31T13:34:13.348Z,3.15
2022-12-31T13:38:18.899Z,3.25
2022-12-31T13:42:25.453Z,1.48
2022-12-31T13:46:40.668Z,3.78
2022-12-31T13:50:51.186Z,1.88
2022-12-31T13:54:56.582Z,3.28
2022-12-31T14:03:11.364Z,2.25
2022-12-31T14:11:27.002Z,3.08
2022-12-31T14:15:32.751Z,2.15
2022-12-31T14:19:47.991Z,8.05
2022-12-31T14:24:01.829Z,4.78
2022-12-31T14:28:06.420Z,2.80
2022-12-31T14:32:24.204Z,1.75
2022-12-31T14:36:37.043Z,1.75
2022-12-31T14:40:52.175Z,1.50
2022-12-31T14:45:06.497Z,1.95
2022-12-31T14:49:23.761Z,1.50
2022-12-31T14:57:54.340Z,3.30
2022-12-31T15:06:09.739Z,1.90
2022-12-31T15:10:18.708Z,2.33
2022-12-31T15:15:00.972Z,3.25
2022-12-31T15:19:44.472Z,1.60
2022-12-31T15:23:46.424Z,2.55
2022-12-31T15:27:48.762Z,6.95
2022-12-31T15:31:52.595Z,2.60
2022-12-31T15:35:56.898Z,2.78
2022-12-31T15:40:16.509Z,2.88
2022-12-31T15:44:24.448Z,2.42
2022-12-31T15:48:36.137Z,8.05
2022-12-31T15:52:43.368Z,4.95
2022-12-31T15:56:45.751Z,5.68
2022-12-31T16:01:00.446Z,4.78
2022-12-31T16:05:03.451Z,3.35
2022-12-31T16:09:08.461Z,8.27
2022-12-31T16:13:20.040Z,3.00
2022-12-31T16:17:27.026Z,4.45
2022-12-31T16:21:32.822Z,3.40
2022-12-31T16:25:35.622Z,4.32
2022-12-31T16:29:41.575Z,4.97
2022-12-31T16:33:44.040Z,4.30
2022-12-31T16:37:46.948Z,2.30
2022-12-31T16:41:48.354Z,3.47
2022-12-31T16:45:49.933Z,2.08
2022-12-31T16:49:59.333Z,3.40
2022-12-31T16:54:03.140Z,4.65
2022-12-31T16:58:15.087Z,3.22
2022-12-31T17:02:21.908Z,4.82
2022-12-31T17:06:23.595Z,5.80
2022-12-31T17:10:32.933Z,6.57
2022-12-31T17:14:48.011Z,3.22
2022-12-31T17:18:49.667Z,11.85
2022-12-31T17:22:54.424Z,7.95
2022-12-31T17:27:03.555Z,7.15
2022-12-31T17:31:27.695Z,7.45
2022-12-31T17:35:31.510Z,5.45
2022-12-31T17:39:43.183Z,6.15
2022-12-31T17:43:50.461Z,5.82
2022-12-31T17:47:52.221Z,3.75
2022-12-31T17:51:53.633Z,8.05
2022-12-31T17:56:00.107Z,8.80
2022-12-31T18:00:05.480Z,5.97
2022-12-31T18:08:12.394Z,4.68
2022-12-31T18:12:14.799Z,7.40
2022-12-31T18:16:17.668Z,5.40
2022-12-31T18:20:19.277Z,6.32
2022-12-31T18:24:25.901Z,5.68
2022-12-31T18:28:27.659Z,3.50
2022-12-31T18:32:31.255Z,3.83
2022-12-31T18:36:32.734Z,4.95
2022-12-31T18:40:34.179Z,7.05
2022-12-31T18:44:35.607Z,9.32
2022-12-31T18:48:38.372Z,8.30
2022-12-31T18:52:39.862Z,6.60
2022-12-31T18:56:47.045Z,5.88
2022-12-31T19:00:50.757Z,6.28
2022-12-31T19:04:53.530Z,7.50
2022-12-31T19:08:55.444Z,5.68
2022-12-31T19:12:56.883Z,7.55
2022-12-31T19:16:58.293Z,7.55
2022-12-31T19:21:01.446Z,7.13
2022-12-31T19:25:03.197Z,7.63
2022-12-31T19:29:04.613Z,7.45
2022-12-31T19:33:06.037Z,14.88
2022-12-31T19:37:11.864Z,10.35
2022-12-31T19:41:15.415Z,11.93
2022-12-31T19:45:19.537Z,8.18
2022-12-31T19:49:21.082Z,6.50
2022-12-31T19:53:26.683Z,10.30
2022-12-31T19:57:28.149Z,12.02
2022-12-31T20:01:29.722Z,10.20
2022-12-31T20:05:31.441Z,9.10
2022-12-31T20:09:34.227Z,7.97
2022-12-31T20:13:36.089Z,7.18
2022-12-31T20:17:37.608Z,6.03
2022-12-31T20:21:39.032Z,3.20
2022-12-31T20:25:41.827Z,3.85
2022-12-31T20:29:43.246Z,5.40
2022-12-31T20:33:44.820Z,3.38
2022-12-31T20:37:46.384Z,5.18
2022-12-31T20:41:49.216Z,4.07
2022-12-31T20:45:50.638Z,4.60
2022-12-31T20:50:10.897Z,4.00
2022-12-31T20:54:12.883Z,5.90
2022-12-31T20:58:15.668Z,6.22
2022-12-31T21:02:21.638Z,6.32
2022-12-31T21:06:23.436Z,4.53
2022-12-31T21:10:24.841Z,7.50
2022-12-31T21:14:27.581Z,2.95
2022-12-31T21:18:29.073Z,6.72
2022-12-31T21:22:30.597Z,7.20
2022-12-31T21:26:32.180Z,5.88
2022-12-31T21:30:34.973Z,4.25
2022-12-31T21:34:36.389Z,6.03
2022-12-31T21:38:38.087Z,7.43
2022-12-31T21:42:39.535Z,6.13
2022-12-31T21:47:00.894Z,7.05
2022-12-31T21:51:09.193Z,2.65
2022-12-31T21:55:11.444Z,3.05
2022-12-31T21:59:12.854Z,3.15
2022-12-31T22:03:15.752Z,6.35
2022-12-31T22:07:17.330Z,2.65
2022-12-31T22:11:21.032Z,3.80
2022-12-31T22:15:22.433Z,5.68
2022-12-31T22:19:25.160Z,4.32
2022-12-31T22:23:26.679Z,8.15
2022-12-31T22:27:29.915Z,3.53
2022-12-31T22:31:31.629Z,5.63
2022-12-31T22:35:34.427Z,2.65
2022-12-31T22:39:43.968Z,2.88
2022-12-31T22:43:47.728Z,4.15
2022-12-31T22:47:49.162Z,5.05
2022-12-31T22:51:56.255Z,4.38
2022-12-31T22:56:00.423Z,2.28
2022-12-31T23:00:01.886Z,5.10
2022-12-31T23:04:03.977Z,8.45
2022-12-31T23:08:17.012Z,14.30
2022-12-31T23:12:23.627Z,21.10
2022-12-31T23:16:26.972Z,29.45
2022-12-31T23:20:28.400Z,16.25
2022-12-31T23:24:31.153Z,19.40
2022-12-31T23:28:32.588Z,17.20
2022-12-31T23:32:33.990Z,21.88
2022-12-31T23:36:35.418Z,14.48
2022-12-31T23:40:38.503Z,13.57
2022-12-31T23:44:39.901Z,17.08
2022-12-31T23:48:41.325Z,15.70
2022-12-31T23:52:42.723Z,16.65
2022-12-31T23:56:45.503Z,10.98
